createdAt,value
2023-05-05T00:00:03.509Z,79.41
2023-05-05T00:01:03.496Z,79.64
2023-05-05T00:02:03.474Z,79.80
2023-05-05T00:03:03.541Z,79.96
2023-05-05T00:04:03.502Z,80.30
2023-05-05T00:05:03.430Z,80.37
2023-05-05T00:06:03.438Z,80.53
2023-05-05T00:07:03.423Z,80.46
2023-05-05T00:08:03.401Z,80.20
2023-05-05T00:09:03.382Z,79.68
2023-05-05T00:10:03.394Z,79.41
2023-05-05T00:11:03.380Z,79.15
2023-05-05T00:12:03.346Z,79.18
2023-05-05T00:13:03.350Z,79.16
2023-05-05T00:14:03.310Z,79.22
2023-05-05T00:15:03.330Z,79.45
2023-05-05T00:16:03.290Z,79.70
2023-05-05T00:17:03.318Z,79.96
2023-05-05T00:18:03.322Z,80.01
2023-05-05T00:19:03.248Z,80.11
2023-05-05T00:20:03.269Z,80.11
2023-05-05T00:21:03.235Z,80.13
2023-05-05T00:22:03.251Z,80.18
2023-05-05T00:23:03.219Z,79.97
2023-05-05T00:24:03.193Z,79.85
2023-05-05T00:25:03.172Z,79.72
2023-05-05T00:26:03.202Z,79.58
2023-05-05T00:27:03.143Z,79.64
2023-05-05T00:28:03.133Z,79.72
2023-05-05T00:29:03.207Z,79.63
2023-05-05T00:30:03.107Z,79.75
2023-05-05T00:31:03.196Z,79.72
2023-05-05T00:32:03.131Z,79.98
2023-05-05T00:33:03.131Z,79.75
2023-05-05T00:34:03.074Z,79.64
2023-05-05T00:35:03.084Z,79.55
2023-05-05T00:36:03.084Z,79.53
2023-05-05T00:37:03.046Z,79.47
2023-05-05T00:38:03.019Z,79.61
2023-05-05T00:39:03.002Z,79.59
2023-05-05T00:40:03.066Z,79.65
2023-05-05T00:41:03.059Z,79.67
2023-05-05T00:42:02.962Z,79.73
2023-05-05T00:43:02.974Z,79.81
2023-05-05T00:44:02.945Z,79.78
2023-05-05T00:45:02.934Z,79.71
2023-05-05T00:46:03.010Z,79.61
2023-05-05T00:47:02.906Z,79.60
2023-05-05T00:48:02.916Z,79.68
2023-05-05T00:49:02.928Z,79.63
2023-05-05T00:50:02.876Z,79.62
2023-05-05T00:51:02.870Z,79.64
2023-05-05T00:52:02.845Z,79.67
2023-05-05T00:53:02.847Z,79.79
2023-05-05T00:54:02.815Z,79.78
2023-05-05T00:55:02.822Z,79.90
2023-05-05T00:56:02.807Z,79.76
2023-05-05T00:57:02.781Z,79.75
2023-05-05T00:58:02.824Z,79.90
2023-05-05T00:59:02.750Z,79.98
2023-05-05T01:00:02.741Z,80.08
2023-05-05T01:01:02.753Z,80.26
2023-05-05T01:02:02.774Z,80.42
2023-05-05T01:03:10.199Z,80.59
2023-05-05T01:04:02.787Z,80.77
2023-05-05T01:05:02.684Z,81.00
2023-05-05T01:06:02.661Z,81.17
2023-05-05T01:07:02.668Z,81.61
2023-05-05T01:08:02.642Z,81.71
2023-05-05T01:09:02.630Z,81.62
2023-05-05T01:10:18.230Z,81.55
2023-05-05T01:11:02.631Z,81.52
2023-05-05T01:12:02.614Z,81.39
2023-05-05T01:13:02.643Z,81.45
2023-05-05T01:14:02.572Z,81.70
2023-05-05T01:15:02.548Z,81.87
2023-05-05T01:16:02.584Z,82.33
2023-05-05T01:17:02.542Z,82.71
2023-05-05T01:18:02.570Z,82.96
2023-05-05T01:19:02.499Z,83.13
2023-05-05T01:20:02.491Z,83.00
2023-05-05T01:21:02.482Z,82.82
2023-05-05T01:22:02.463Z,82.74
2023-05-05T01:23:02.483Z,82.71
2023-05-05T01:24:02.419Z,82.96
2023-05-05T01:25:02.433Z,83.16
2023-05-05T01:26:02.477Z,83.33
2023-05-05T01:27:02.400Z,83.31
2023-05-05T01:28:02.381Z,83.15
2023-05-05T01:29:02.398Z,83.03
2023-05-05T01:30:02.390Z,83.06
2023-05-05T01:31:02.336Z,83.17
2023-05-05T01:32:02.350Z,83.08
2023-05-05T01:33:02.318Z,82.84
2023-05-05T01:34:02.300Z,82.64
2023-05-05T01:35:02.324Z,82.57
2023-05-05T01:36:02.293Z,82.49
2023-05-05T01:37:02.290Z,82.61
2023-05-05T01:38:02.247Z,82.55
2023-05-05T01:39:02.249Z,82.62
2023-05-05T01:40:02.217Z,83.17
2023-05-05T01:41:02.232Z,83.71
2023-05-05T01:42:02.213Z,84.12
2023-05-05T01:43:02.198Z,84.43
2023-05-05T01:44:02.189Z,84.56
2023-05-05T01:45:02.163Z,84.75
2023-05-05T01:46:02.188Z,84.98
2023-05-05T01:47:02.157Z,85.38
2023-05-05T01:48:02.145Z,85.66
2023-05-05T01:49:02.121Z,85.67
2023-05-05T01:50:02.149Z,85.67
2023-05-05T01:51:02.076Z,85.50
2023-05-05T01:52:02.064Z,85.34
2023-05-05T01:53:02.084Z,85.15
2023-05-05T01:54:02.053Z,84.70
2023-05-05T01:55:02.043Z,84.48
2023-05-05T01:56:02.037Z,84.45
2023-05-05T01:57:02.031Z,84.30
2023-05-05T01:58:01.987Z,84.33
2023-05-05T01:59:02.019Z,84.22
2023-05-05T02:00:02.039Z,84.20
2023-05-05T02:01:01.988Z,84.16
2023-05-05T02:02:01.974Z,84.08
2023-05-05T02:03:02.042Z,84.09
2023-05-05T02:04:01.943Z,83.99
2023-05-05T02:05:01.926Z,83.94
2023-05-05T02:06:01.924Z,84.06
2023-05-05T02:07:01.871Z,84.05
2023-05-05T02:08:01.870Z,84.19
2023-05-05T02:09:01.887Z,83.94
2023-05-05T02:10:01.871Z,83.82
2023-05-05T02:11:01.820Z,83.70
2023-05-05T02:12:01.816Z,83.67
2023-05-05T02:13:01.795Z,83.59
2023-05-05T02:14:01.840Z,83.56
2023-05-05T02:15:01.783Z,83.57
2023-05-05T02:16:01.843Z,83.58
2023-05-05T02:17:01.750Z,83.49
2023-05-05T02:18:01.788Z,83.46
2023-05-05T02:19:01.749Z,83.28
2023-05-05T02:20:01.805Z,83.18
2023-05-05T02:21:01.729Z,82.99
2023-05-05T02:22:01.685Z,83.16
2023-05-05T02:23:01.712Z,83.03
2023-05-05T02:24:01.702Z,83.17
2023-05-05T02:25:01.671Z,83.29
2023-05-05T02:26:01.650Z,83.24
2023-05-05T02:27:01.642Z,83.31
2023-05-05T02:28:01.619Z,83.31
2023-05-05T02:29:01.598Z,83.37
2023-05-05T02:30:01.621Z,83.74
2023-05-05T02:31:01.588Z,83.75
2023-05-05T02:32:01.562Z,83.95
2023-05-05T02:33:01.578Z,84.15
2023-05-05T02:34:01.530Z,84.23
2023-05-05T02:35:01.539Z,84.31
2023-05-05T02:36:01.554Z,84.42
2023-05-05T02:37:01.501Z,84.46
2023-05-05T02:38:01.498Z,84.65
2023-05-05T02:39:01.484Z,84.60
2023-05-05T02:40:01.474Z,84.64
2023-05-05T02:41:01.444Z,84.72
2023-05-05T02:42:01.453Z,84.78
2023-05-05T02:43:01.442Z,84.80
2023-05-05T02:44:01.426Z,85.12
2023-05-05T02:45:01.394Z,85.31
2023-05-05T02:46:01.425Z,85.32
2023-05-05T02:47:01.398Z,85.23
2023-05-05T02:48:01.444Z,85.21
2023-05-05T02:49:01.351Z,85.24
2023-05-05T02:50:01.346Z,85.14
2023-05-05T02:51:01.315Z,85.00
2023-05-05T02:52:01.309Z,84.94
2023-05-05T02:53:01.308Z,84.64
2023-05-05T02:54:01.313Z,84.50
2023-05-05T02:55:01.273Z,84.53
2023-05-05T02:56:01.292Z,84.51
2023-05-05T02:57:01.265Z,84.43
2023-05-05T02:58:01.232Z,84.34
2023-05-05T02:59:01.234Z,84.22
2023-05-05T03:00:01.201Z,84.22
2023-05-05T03:01:01.195Z,84.09
2023-05-05T03:02:01.188Z,83.97
2023-05-05T03:03:01.247Z,83.90
2023-05-05T03:04:01.149Z,84.12
2023-05-05T03:05:01.152Z,84.11
2023-05-05T03:06:01.138Z,84.03
2023-05-05T03:07:01.109Z,83.80
2023-05-05T03:08:01.184Z,84.09
2023-05-05T03:09:01.093Z,84.08
2023-05-05T03:10:01.076Z,84.61
2023-05-05T03:11:01.105Z,84.73
2023-05-05T03:12:01.058Z,84.64
2023-05-05T03:13:01.113Z,84.43
2023-05-05T03:14:01.045Z,84.33
2023-05-05T03:15:01.006Z,84.46
2023-05-05T03:16:01.018Z,84.67
2023-05-05T03:17:01.002Z,84.52
2023-05-05T03:18:00.990Z,85.36
2023-05-05T03:19:00.954Z,85.81
2023-05-05T03:20:03.458Z,85.52
2023-05-05T03:21:00.941Z,85.51
2023-05-05T03:22:00.959Z,85.31
2023-05-05T03:23:00.924Z,85.31
2023-05-05T03:24:00.918Z,85.35
2023-05-05T03:25:00.875Z,85.35
2023-05-05T03:26:00.875Z,85.32
2023-05-05T03:27:00.870Z,85.27
2023-05-05T03:28:00.857Z,85.42
2023-05-05T03:29:00.850Z,85.70
2023-05-05T03:30:00.842Z,85.89
2023-05-05T03:31:00.801Z,86.06
2023-05-05T03:32:00.794Z,86.14
2023-05-05T03:33:00.873Z,86.31
2023-05-05T03:34:00.769Z,86.56
2023-05-05T03:35:00.797Z,86.83
2023-05-05T03:36:00.746Z,86.78
2023-05-05T03:37:00.729Z,86.70
2023-05-05T03:38:00.710Z,86.63
2023-05-05T03:39:00.708Z,86.55
2023-05-05T03:40:00.679Z,86.54
2023-05-05T03:41:00.695Z,86.62
2023-05-05T03:42:00.674Z,86.84
2023-05-05T03:43:00.686Z,86.89
2023-05-05T03:44:00.656Z,86.88
2023-05-05T03:45:00.630Z,87.13
2023-05-05T03:46:00.687Z,87.26
2023-05-05T03:47:00.618Z,87.20
2023-05-05T03:48:00.660Z,86.88
2023-05-05T03:49:00.587Z,86.59
2023-05-05T03:50:00.628Z,86.34
2023-05-05T03:51:00.609Z,86.21
2023-05-05T03:52:00.533Z,85.99
2023-05-05T03:53:00.588Z,85.86
2023-05-05T03:54:00.516Z,85.75
2023-05-05T03:55:00.500Z,85.73
2023-05-05T03:56:00.543Z,85.78
2023-05-05T03:57:00.485Z,85.97
2023-05-05T03:58:00.485Z,86.08
2023-05-05T03:59:00.463Z,86.21
2023-05-05T04:00:00.444Z,86.37
2023-05-05T04:01:00.446Z,86.65
2023-05-05T04:02:00.528Z,86.65
2023-05-05T04:03:00.502Z,86.58
2023-05-05T04:04:00.408Z,86.60
2023-05-05T04:05:00.378Z,86.63
2023-05-05T04:06:00.386Z,86.82
2023-05-05T04:07:00.344Z,86.94
2023-05-05T04:08:00.372Z,87.03
2023-05-05T04:09:00.326Z,87.22
2023-05-05T04:10:00.348Z,87.33
2023-05-05T04:11:00.300Z,87.30
2023-05-05T04:12:00.290Z,87.18
2023-05-05T04:13:00.320Z,87.20
2023-05-05T04:14:00.264Z,87.38
2023-05-05T04:15:00.282Z,87.72
2023-05-05T04:16:00.323Z,87.61
2023-05-05T04:17:00.229Z,87.68
2023-05-05T04:18:00.267Z,87.77
2023-05-05T04:19:00.240Z,87.55
2023-05-05T04:20:00.217Z,87.67
2023-05-05T04:21:00.202Z,87.73
2023-05-05T04:22:00.203Z,87.84
2023-05-05T04:23:00.156Z,88.18
2023-05-05T04:24:00.182Z,88.18
2023-05-05T04:25:00.241Z,88.32
2023-05-05T04:26:00.163Z,88.39
2023-05-05T04:27:00.106Z,88.43
2023-05-05T04:28:00.145Z,88.56
2023-05-05T04:29:00.189Z,88.50
2023-05-05T04:30:00.060Z,88.36
2023-05-05T04:31:00.123Z,88.02
2023-05-05T04:32:00.056Z,87.63
2023-05-05T04:33:00.068Z,87.46
2023-05-05T04:34:00.003Z,87.29
2023-05-05T04:34:59.996Z,87.04
2023-05-05T04:35:59.976Z,86.83
2023-05-05T04:36:59.991Z,86.67
2023-05-05T04:37:59.962Z,86.49
2023-05-05T04:38:59.969Z,86.19
2023-05-05T04:39:59.921Z,86.13
2023-05-05T04:40:59.966Z,85.99
2023-05-05T04:41:59.933Z,85.73
2023-05-05T04:42:59.890Z,85.51
2023-05-05T04:43:59.880Z,85.75
2023-05-05T04:44:59.889Z,85.86
2023-05-05T04:45:59.849Z,85.76
2023-05-05T04:46:59.883Z,85.66
2023-05-05T04:47:59.916Z,85.74
2023-05-05T04:48:59.846Z,85.38
2023-05-05T04:49:59.802Z,85.09
2023-05-05T04:50:59.785Z,84.89
2023-05-05T04:51:59.784Z,84.52
2023-05-05T04:52:59.780Z,84.30
2023-05-05T04:53:59.745Z,83.88
2023-05-05T04:54:59.750Z,83.63
2023-05-05T04:55:59.738Z,83.34
2023-05-05T04:56:59.727Z,82.95
2023-05-05T04:57:59.699Z,82.59
2023-05-05T04:58:59.705Z,82.67
2023-05-05T04:59:59.664Z,82.56
2023-05-05T05:00:59.680Z,82.29
2023-05-05T05:01:59.704Z,82.04
2023-05-05T05:02:59.715Z,81.83
2023-05-05T05:03:59.644Z,81.76
2023-05-05T05:04:59.634Z,81.50
2023-05-05T05:05:59.598Z,81.31
2023-05-05T05:06:59.587Z,81.34
2023-05-05T05:07:59.575Z,80.78
2023-05-05T05:08:59.557Z,80.61
2023-05-05T05:09:59.594Z,80.33
2023-05-05T05:10:59.553Z,80.24
2023-05-05T05:11:59.518Z,79.97
2023-05-05T05:12:59.554Z,79.82
2023-05-05T05:13:59.512Z,79.89
2023-05-05T05:14:59.479Z,79.62
2023-05-05T05:15:59.562Z,79.43
2023-05-05T05:16:59.509Z,79.22
2023-05-05T05:17:59.495Z,78.95
2023-05-05T05:19:01.480Z,78.52
2023-05-05T05:19:59.447Z,78.42
2023-05-05T05:20:59.413Z,78.68
2023-05-05T05:21:59.432Z,78.48
2023-05-05T05:22:59.376Z,78.19
2023-05-05T05:23:59.364Z,78.08
2023-05-05T05:24:59.351Z,77.36
2023-05-05T05:25:59.337Z,76.38
2023-05-05T05:26:59.390Z,75.59
2023-05-05T05:28:09.386Z,75.55
2023-05-05T05:28:59.331Z,75.94
2023-05-05T05:29:59.279Z,76.10
2023-05-05T05:30:59.278Z,75.98
2023-05-05T05:31:59.287Z,75.87
2023-05-05T05:32:59.300Z,75.33
2023-05-05T05:33:59.256Z,75.05
2023-05-05T05:34:59.282Z,74.97
2023-05-05T05:35:59.203Z,74.82
2023-05-05T05:36:59.199Z,74.55
2023-05-05T05:37:59.189Z,74.18
2023-05-05T05:38:59.180Z,74.36
2023-05-05T05:39:59.164Z,74.34
2023-05-05T05:40:59.158Z,74.72
2023-05-05T05:41:59.149Z,74.71
2023-05-05T05:42:59.127Z,74.54
2023-05-05T05:43:59.109Z,74.53
2023-05-05T05:44:59.135Z,74.36
2023-05-05T05:45:59.081Z,74.20
2023-05-05T05:46:59.075Z,74.52
2023-05-05T05:47:59.087Z,74.11
2023-05-05T05:48:59.064Z,74.63
2023-05-05T05:49:59.056Z,74.30
2023-05-05T05:50:59.006Z,74.08
2023-05-05T05:51:59.004Z,74.34
2023-05-05T05:52:59.009Z,73.93
2023-05-05T05:53:59.101Z,73.82
2023-05-05T05:54:59.011Z,73.98
2023-05-05T05:55:58.955Z,73.71
2023-05-05T05:56:58.935Z,73.57
2023-05-05T05:57:58.931Z,73.04
2023-05-05T05:58:58.936Z,72.68
2023-05-05T06:00:04.763Z,72.19
2023-05-05T06:00:58.896Z,71.69
2023-05-05T06:01:58.913Z,72.19
2023-05-05T06:02:59.034Z,73.23
2023-05-05T06:03:58.923Z,73.09
2023-05-05T06:04:58.904Z,73.05
2023-05-05T06:05:58.852Z,71.82
2023-05-05T06:06:58.808Z,72.63
2023-05-05T06:07:58.812Z,72.50
2023-05-05T06:08:58.797Z,73.06
2023-05-05T06:10:01.320Z,72.66
2023-05-05T06:10:58.775Z,73.28
2023-05-05T06:11:58.759Z,73.46
2023-05-05T06:12:58.814Z,73.46
2023-05-05T06:13:58.732Z,72.03
2023-05-05T06:14:58.743Z,71.86
2023-05-05T06:15:58.709Z,71.07
2023-05-05T06:16:58.692Z,70.44
2023-05-05T06:17:58.744Z,70.65
2023-05-05T06:18:58.694Z,70.12
2023-05-05T06:19:58.640Z,68.85
2023-05-05T06:20:58.676Z,69.19
2023-05-05T06:21:58.634Z,69.69
2023-05-05T06:22:58.631Z,69.11
2023-05-05T06:23:58.622Z,68.44
2023-05-05T06:24:58.599Z,68.23
2023-05-05T06:25:58.595Z,68.00
2023-05-05T06:26:58.573Z,67.88
2023-05-05T06:27:58.539Z,66.28
2023-05-05T06:28:58.563Z,66.78
2023-05-05T06:29:58.542Z,66.76
2023-05-05T06:30:58.546Z,66.49
2023-05-05T06:31:58.501Z,67.31
2023-05-05T06:32:58.516Z,67.86
2023-05-05T06:33:58.469Z,67.96
2023-05-05T06:34:58.489Z,67.65
2023-05-05T06:35:58.457Z,67.45
2023-05-05T06:36:58.438Z,67.56
2023-05-05T06:37:58.428Z,67.56
2023-05-05T06:38:58.423Z,67.71
2023-05-05T06:39:58.402Z,68.23
2023-05-05T06:40:58.428Z,68.10
2023-05-05T06:41:58.402Z,67.58
2023-05-05T06:42:58.350Z,67.01
2023-05-05T06:43:58.347Z,66.50
2023-05-05T06:44:58.396Z,66.17
2023-05-05T06:45:58.331Z,66.01
2023-05-05T06:46:58.370Z,65.07
2023-05-05T06:47:58.335Z,64.75
2023-05-05T06:48:58.284Z,65.56
2023-05-05T06:49:58.301Z,65.66
2023-05-05T06:50:58.269Z,65.44
2023-05-05T06:51:58.288Z,65.60
2023-05-05T06:52:58.263Z,65.42
2023-05-05T06:53:58.226Z,64.96
2023-05-05T06:54:58.210Z,64.46
2023-05-05T06:55:58.198Z,64.42
2023-05-05T06:56:59.565Z,64.80
2023-05-05T06:57:58.175Z,65.13
2023-05-05T06:58:58.164Z,65.24
2023-05-05T06:59:58.152Z,66.00
2023-05-05T07:00:58.187Z,64.82
2023-05-05T07:01:58.158Z,64.10
2023-05-05T07:02:58.169Z,64.39
2023-05-05T07:03:58.133Z,62.64
2023-05-05T07:04:58.102Z,62.64
2023-05-05T07:05:58.064Z,62.40
2023-05-05T07:06:58.063Z,62.09
2023-05-05T07:07:58.065Z,61.97
2023-05-05T07:08:58.060Z,61.61
2023-05-05T07:09:58.019Z,61.62
2023-05-05T07:10:58.056Z,62.07
2023-05-05T07:11:57.997Z,62.88
2023-05-05T07:12:58.024Z,61.19
2023-05-05T07:13:57.999Z,59.28
2023-05-05T07:14:57.995Z,59.51
2023-05-05T07:15:57.968Z,60.41
2023-05-05T07:16:58.168Z,58.63
2023-05-05T07:17:58.252Z,59.09
2023-05-05T07:18:57.990Z,57.73
2023-05-05T07:19:57.897Z,57.72
2023-05-05T07:20:57.936Z,56.64
2023-05-05T07:21:58.000Z,54.51
2023-05-05T07:22:57.872Z,56.31
2023-05-05T07:23:57.885Z,57.60
2023-05-05T07:24:57.853Z,59.43
2023-05-05T07:25:57.891Z,60.76
2023-05-05T07:26:57.835Z,60.65
2023-05-05T07:27:57.823Z,61.32
2023-05-05T07:28:57.816Z,59.79
2023-05-05T07:29:57.813Z,59.86
2023-05-05T07:30:57.802Z,58.21
2023-05-05T07:31:57.800Z,56.96
2023-05-05T07:32:57.794Z,57.47
2023-05-05T07:33:57.758Z,58.87
2023-05-05T07:34:57.738Z,58.46
2023-05-05T07:35:57.750Z,58.21
2023-05-05T07:36:57.707Z,57.64
2023-05-05T07:37:57.685Z,58.51
2023-05-05T07:38:57.687Z,57.94
2023-05-05T07:39:57.676Z,58.18
2023-05-05T07:40:57.671Z,58.20
2023-05-05T07:41:57.664Z,58.30
2023-05-05T07:42:57.635Z,57.95
2023-05-05T07:43:57.615Z,57.86
2023-05-05T07:44:57.592Z,58.51
2023-05-05T07:45:57.642Z,58.99
2023-05-05T07:46:57.584Z,58.49
2023-05-05T07:47:57.598Z,59.89
2023-05-05T07:48:57.577Z,60.19
2023-05-05T07:49:57.557Z,59.99
2023-05-05T07:50:57.584Z,59.70
2023-05-05T07:51:57.517Z,58.63
2023-05-05T07:53:06.239Z,58.64
2023-05-05T07:53:57.495Z,58.37
2023-05-05T07:54:57.501Z,59.45
2023-05-05T07:55:57.473Z,59.56
2023-05-05T07:56:57.489Z,59.62
2023-05-05T07:57:57.437Z,59.05
2023-05-05T07:58:57.440Z,55.85
2023-05-05T07:59:57.425Z,55.16
2023-05-05T08:00:57.429Z,51.99
2023-05-05T08:01:57.426Z,50.25
2023-05-05T08:02:57.474Z,50.30
2023-05-05T08:03:57.449Z,48.60
2023-05-05T08:04:57.378Z,49.92
2023-05-05T08:05:57.348Z,51.18
2023-05-05T08:06:57.354Z,51.57
2023-05-05T08:07:57.350Z,51.51
2023-05-05T08:08:57.336Z,52.14
2023-05-05T08:09:57.338Z,51.70
2023-05-05T08:10:57.319Z,51.52
2023-05-05T08:11:57.278Z,51.79
2023-05-05T08:12:57.301Z,51.77
2023-05-05T08:13:57.268Z,52.23
2023-05-05T08:14:57.262Z,53.77
2023-05-05T08:15:57.254Z,54.57
2023-05-05T08:16:57.237Z,55.30
2023-05-05T08:17:57.260Z,55.72
2023-05-05T08:18:57.198Z,55.56
2023-05-05T08:19:57.231Z,54.72
2023-05-05T08:20:57.186Z,54.14
2023-05-05T08:21:58.869Z,55.00
2023-05-05T08:22:57.184Z,55.24
2023-05-05T08:23:57.132Z,56.15
2023-05-05T08:24:57.127Z,56.41
2023-05-05T08:25:57.133Z,57.10
2023-05-05T08:26:57.117Z,58.20
2023-05-05T08:27:57.098Z,58.50
2023-05-05T08:28:57.077Z,58.88
2023-05-05T08:29:57.080Z,58.57
2023-05-05T08:30:57.068Z,58.52
2023-05-05T08:31:57.181Z,58.64
2023-05-05T08:32:57.116Z,59.80
2023-05-05T08:33:57.043Z,61.45
2023-05-05T08:34:57.018Z,61.99
2023-05-05T08:35:57.009Z,61.86
2023-05-05T08:36:56.984Z,62.12
2023-05-05T08:37:59.128Z,61.16
2023-05-05T08:38:56.956Z,60.91
2023-05-05T08:39:56.964Z,60.47
2023-05-05T08:40:56.948Z,59.97
2023-05-05T08:41:56.957Z,58.77
2023-05-05T08:42:56.918Z,59.25
2023-05-05T08:43:56.925Z,60.30
2023-05-05T08:44:58.851Z,59.46
2023-05-05T08:45:56.898Z,59.16
2023-05-05T08:46:56.946Z,58.31
2023-05-05T08:47:56.942Z,58.16
2023-05-05T08:48:56.867Z,57.59
2023-05-05T08:49:56.832Z,57.03
2023-05-05T08:50:58.686Z,56.42
2023-05-05T08:51:56.797Z,55.64
2023-05-05T08:52:56.849Z,55.55
2023-05-05T08:53:56.782Z,55.62
2023-05-05T08:54:56.795Z,56.21
2023-05-05T08:55:56.746Z,56.31
2023-05-05T08:56:56.752Z,55.76
2023-05-05T08:57:56.733Z,55.20
2023-05-05T08:58:56.723Z,55.22
2023-05-05T08:59:56.718Z,55.50
2023-05-05T09:00:56.750Z,56.46
2023-05-05T09:01:56.742Z,56.39
2023-05-05T09:02:56.930Z,53.63
2023-05-05T09:03:56.660Z,53.36
2023-05-05T09:04:56.641Z,53.79
2023-05-05T09:05:56.650Z,53.22
2023-05-05T09:06:56.626Z,52.47
2023-05-05T09:07:56.643Z,52.52
2023-05-05T09:08:58.960Z,52.28
2023-05-05T09:09:56.581Z,50.49
2023-05-05T09:10:56.590Z,48.76
2023-05-05T09:11:56.624Z,46.23
2023-05-05T09:12:56.594Z,43.25
2023-05-05T09:13:56.628Z,42.02
2023-05-05T09:14:58.937Z,41.82
2023-05-05T09:15:56.588Z,42.51
2023-05-05T09:16:56.597Z,41.62
2023-05-05T09:17:56.537Z,40.81
2023-05-05T09:18:56.548Z,38.67
2023-05-05T09:19:56.504Z,38.61
2023-05-05T09:20:58.132Z,39.36
2023-05-05T09:21:56.486Z,40.70
2023-05-05T09:22:56.519Z,41.45
2023-05-05T09:23:58.541Z,42.41
2023-05-05T09:24:56.461Z,42.79
2023-05-05T09:25:56.498Z,42.66
2023-05-05T09:26:58.548Z,44.17
2023-05-05T09:27:56.459Z,43.31
2023-05-05T09:28:56.434Z,43.58
2023-05-05T09:29:56.447Z,43.36
2023-05-05T09:30:56.559Z,41.50
2023-05-05T09:31:56.480Z,41.17
2023-05-05T09:32:56.454Z,40.55
2023-05-05T09:33:56.384Z,40.23
2023-05-05T09:34:56.400Z,39.36
2023-05-05T09:35:56.557Z,38.86
2023-05-05T09:36:56.400Z,37.94
2023-05-05T09:37:56.435Z,39.41
2023-05-05T09:38:58.293Z,41.16
2023-05-05T09:39:56.406Z,43.05
2023-05-05T09:40:56.339Z,43.49
2023-05-05T09:41:56.334Z,42.54
2023-05-05T09:42:56.320Z,39.43
2023-05-05T09:43:56.316Z,38.60
2023-05-05T09:44:57.837Z,38.75
2023-05-05T09:45:56.325Z,37.03
2023-05-05T09:46:56.283Z,35.27
2023-05-05T09:47:59.672Z,35.99
2023-05-05T09:48:56.318Z,35.96
2023-05-05T09:49:56.252Z,34.85
2023-05-05T09:50:56.239Z,33.77
2023-05-05T09:51:56.281Z,34.73
2023-05-05T09:52:56.286Z,35.98
2023-05-05T09:53:56.229Z,35.52
2023-05-05T09:54:56.281Z,35.10
2023-05-05T09:55:56.218Z,34.77
2023-05-05T09:56:56.194Z,34.77
2023-05-05T09:57:56.352Z,33.25
2023-05-05T09:58:57.617Z,36.33
2023-05-05T09:59:56.172Z,37.22
2023-05-05T10:00:56.230Z,36.95
2023-05-05T10:01:56.190Z,35.72
2023-05-05T10:02:56.171Z,36.53
2023-05-05T10:03:56.166Z,37.46
2023-05-05T10:04:56.153Z,37.28
2023-05-05T10:05:56.141Z,36.45
2023-05-05T10:06:56.148Z,37.84
2023-05-05T10:07:56.134Z,37.60
2023-05-05T10:08:56.113Z,38.68
2023-05-05T10:09:56.112Z,38.64
2023-05-05T10:10:56.100Z,40.55
2023-05-05T10:11:56.104Z,40.57
2023-05-05T10:12:56.085Z,41.31
2023-05-05T10:13:56.061Z,40.48
2023-05-05T10:14:56.050Z,41.29
2023-05-05T10:15:56.130Z,39.80
2023-05-05T10:16:56.048Z,40.38
2023-05-05T10:18:07.062Z,41.00
2023-05-05T10:18:56.025Z,41.46
2023-05-05T10:19:55.998Z,41.28
2023-05-05T10:20:55.994Z,38.14
2023-05-05T10:21:55.999Z,37.43
2023-05-05T10:22:55.983Z,37.05
2023-05-05T10:23:56.005Z,36.09
2023-05-05T10:24:55.965Z,36.45
2023-05-05T10:25:55.943Z,35.70
2023-05-05T10:26:55.998Z,36.96
2023-05-05T10:27:55.939Z,35.38
2023-05-05T10:28:55.907Z,34.42
2023-05-05T10:29:55.946Z,36.51
2023-05-05T10:30:55.913Z,32.92
2023-05-05T10:31:55.936Z,32.99
2023-05-05T10:33:09.081Z,32.50
2023-05-05T10:33:55.965Z,31.33
2023-05-05T10:34:55.859Z,31.80
2023-05-05T10:35:55.921Z,31.41
2023-05-05T10:36:55.854Z,31.88
2023-05-05T10:37:55.842Z,32.17
2023-05-05T10:38:55.890Z,35.20
2023-05-05T10:39:55.817Z,34.08
2023-05-05T10:40:55.854Z,34.92
2023-05-05T10:41:55.850Z,37.16
2023-05-05T10:42:55.797Z,37.89
2023-05-05T10:43:55.784Z,39.00
2023-05-05T10:44:55.836Z,37.72
2023-05-05T10:45:55.868Z,37.16
2023-05-05T10:46:55.810Z,37.50
2023-05-05T10:47:55.800Z,39.39
2023-05-05T10:48:55.776Z,36.11
2023-05-05T10:49:55.755Z,36.73
2023-05-05T10:50:55.793Z,37.61
2023-05-05T10:51:55.723Z,37.32
2023-05-05T10:52:55.724Z,38.55
2023-05-05T10:53:55.767Z,37.76
2023-05-05T10:54:55.769Z,38.47
2023-05-05T10:55:55.707Z,34.76
2023-05-05T10:56:55.754Z,35.72
2023-05-05T10:57:55.705Z,36.86
2023-05-05T10:59:00.058Z,34.02
2023-05-05T10:59:55.648Z,35.73
2023-05-05T11:00:55.691Z,36.86
2023-05-05T11:01:55.622Z,36.51
2023-05-05T11:02:55.738Z,39.30
2023-05-05T11:03:55.645Z,37.21
2023-05-05T11:04:55.639Z,39.52
2023-05-05T11:05:55.595Z,38.64
2023-05-05T11:06:55.620Z,39.67
2023-05-05T11:07:55.598Z,38.54
2023-05-05T11:08:55.606Z,38.26
2023-05-05T11:09:55.627Z,38.14
2023-05-05T11:10:55.584Z,36.90
2023-05-05T11:11:55.579Z,35.23
2023-05-05T11:12:55.614Z,34.39
2023-05-05T11:13:55.575Z,34.35
2023-05-05T11:14:55.539Z,35.80
2023-05-05T11:15:55.542Z,36.02
2023-05-05T11:16:55.679Z,37.59
2023-05-05T11:17:55.557Z,37.06
2023-05-05T11:18:55.481Z,36.97
2023-05-05T11:19:55.558Z,37.05
2023-05-05T11:20:55.475Z,38.03
2023-05-05T11:21:55.488Z,38.78
2023-05-05T11:22:55.436Z,39.61
2023-05-05T11:23:55.435Z,39.06
2023-05-05T11:24:55.405Z,39.70
2023-05-05T11:25:55.418Z,39.86
2023-05-05T11:26:55.425Z,38.56
2023-05-05T11:27:55.418Z,37.80
2023-05-05T11:28:55.392Z,40.32
2023-05-05T11:29:55.406Z,37.81
2023-05-05T11:30:55.440Z,35.02
2023-05-05T11:31:55.367Z,36.07
2023-05-05T11:32:55.413Z,35.41
2023-05-05T11:33:55.338Z,33.56
2023-05-05T11:34:55.339Z,33.62
2023-05-05T11:35:55.299Z,33.39
2023-05-05T11:36:55.313Z,35.64
2023-05-05T11:37:55.295Z,35.09
2023-05-05T11:38:55.538Z,36.31
2023-05-05T11:39:56.324Z,37.94
2023-05-05T11:40:55.270Z,35.05
2023-05-05T11:41:55.262Z,36.25
2023-05-05T11:42:55.279Z,34.80
2023-05-05T11:43:55.283Z,35.61
2023-05-05T11:44:55.260Z,35.74
2023-05-05T11:45:55.242Z,37.41
2023-05-05T11:46:55.208Z,36.62
2023-05-05T11:47:55.222Z,36.87
2023-05-05T11:48:55.178Z,36.79
2023-05-05T11:49:55.162Z,37.31
2023-05-05T11:50:55.179Z,37.49
2023-05-05T11:51:55.149Z,36.39
2023-05-05T11:52:55.166Z,36.72
2023-05-05T11:53:55.978Z,37.10
2023-05-05T11:54:55.130Z,38.13
2023-05-05T11:55:55.103Z,36.90
2023-05-05T11:56:55.086Z,38.22
2023-05-05T11:57:55.097Z,37.03
2023-05-05T11:58:55.094Z,38.54
2023-05-05T11:59:55.105Z,37.97
2023-05-05T12:00:55.095Z,37.80
2023-05-05T12:01:55.023Z,37.45
2023-05-05T12:02:55.049Z,36.88
2023-05-05T12:03:55.302Z,37.10
2023-05-05T12:04:55.145Z,37.63
2023-05-05T12:05:55.008Z,36.66
2023-05-05T12:06:55.004Z,36.02
2023-05-05T12:07:54.978Z,37.50
2023-05-05T12:08:54.980Z,38.19
2023-05-05T12:09:54.958Z,36.57
2023-05-05T12:10:55.016Z,36.93
2023-05-05T12:11:54.938Z,35.50
2023-05-05T12:12:55.675Z,36.15
2023-05-05T12:13:54.924Z,35.72
2023-05-05T12:14:54.897Z,35.85
2023-05-05T12:15:54.977Z,34.92
2023-05-05T12:16:54.927Z,35.56
2023-05-05T12:17:54.883Z,36.39
2023-05-05T12:18:54.859Z,37.07
2023-05-05T12:19:54.857Z,36.75
2023-05-05T12:20:54.845Z,35.92
2023-05-05T12:21:54.837Z,35.51
2023-05-05T12:22:54.829Z,37.52
2023-05-05T12:23:54.823Z,36.98
2023-05-05T12:24:55.102Z,36.39
2023-05-05T12:25:54.791Z,37.05
2023-05-05T12:26:54.781Z,38.67
2023-05-05T12:27:54.776Z,37.67
2023-05-05T12:28:54.775Z,38.12
2023-05-05T12:29:54.756Z,37.71
2023-05-05T12:30:55.151Z,38.25
2023-05-05T12:31:54.736Z,39.51
2023-05-05T12:32:54.789Z,39.48
2023-05-05T12:33:54.712Z,40.21
2023-05-05T12:34:54.701Z,40.46
2023-05-05T12:35:54.710Z,41.24
2023-05-05T12:36:54.660Z,40.71
2023-05-05T12:37:54.700Z,40.65
2023-05-05T12:38:54.661Z,40.60
2023-05-05T12:39:54.640Z,40.54
2023-05-05T12:40:54.623Z,40.80
2023-05-05T12:41:54.637Z,39.97
2023-05-05T12:42:54.632Z,42.06
2023-05-05T12:43:54.604Z,39.72
2023-05-05T12:44:54.578Z,41.36
2023-05-05T12:45:54.619Z,40.44
2023-05-05T12:46:54.561Z,38.02
2023-05-05T12:47:54.618Z,38.92
2023-05-05T12:48:54.531Z,39.39
2023-05-05T12:49:54.547Z,37.87
2023-05-05T12:50:54.507Z,38.04
2023-05-05T12:51:54.512Z,39.67